sensor_id;sensor_type;location;lat;lon;timestamp;pressure;altitude;pressure_sealevel;temperature;humidity
70921;BME280;58572;48.110;19.838;2022-09-16T00:02:12;96718.88;;;15.90;80.94
70921;BME280;58572;48.110;19.838;2022-09-16T00:04:40;96716.06;;;15.75;81.29
70921;BME280;58572;48.110;19.838;2022-09-16T00:07:08;96808.78;;;16.37;80.82
70921;BME280;58572;48.110;19.838;2022-09-16T00:09:36;96814.28;;;16.37;80.98
70921;BME280;58572;48.110;19.838;2022-09-16T00:12:03;96811.72;;;16.04;83.46
70921;BME280;58572;48.110;19.838;2022-09-16T00:14:31;96807.91;;;16.21;81.57
70921;BME280;58572;48.110;19.838;2022-09-16T00:16:58;96791.69;;;15.43;84.26
70921;BME280;58572;48.110;19.838;2022-09-16T00:19:26;96819.81;;;16.13;81.88
70921;BME280;58572;48.110;19.838;2022-09-16T00:21:53;96780.50;;;15.36;84.45
70921;BME280;58572;48.110;19.838;2022-09-16T00:24:21;96822.31;;;16.18;81.39
70921;BME280;58572;48.110;19.838;2022-09-16T00:26:50;96823.81;;;16.03;82.59
70921;BME280;58572;48.110;19.838;2022-09-16T00:29:17;96818.66;;;16.14;81.86
70921;BME280;58572;48.110;19.838;2022-09-16T00:31:44;96817.03;;;16.25;80.67
70921;BME280;58572;48.110;19.838;2022-09-16T00:34:11;96821.16;;;16.19;81.49
70921;BME280;58572;48.110;19.838;2022-09-16T00:36:38;96821.63;;;16.21;81.19
70921;BME280;58572;48.110;19.838;2022-09-16T00:39:05;96820.03;;;16.20;81.17
70921;BME280;58572;48.110;19.838;2022-09-16T00:41:34;96739.94;;;15.62;81.65
70921;BME280;58572;48.110;19.838;2022-09-16T00:44:04;96824.72;;;16.19;80.47
70921;BME280;58572;48.110;19.838;2022-09-16T00:46:35;96831.47;;;16.10;80.97
70921;BME280;58572;48.110;19.838;2022-09-16T00:49:09;96641.78;;;14.91;80.79
70921;BME280;58572;48.110;19.838;2022-09-16T00:51:39;96796.41;;;15.91;80.97
70921;BME280;58572;48.110;19.838;2022-09-16T00:54:07;96836.72;;;16.03;81.15
70921;BME280;58572;48.110;19.838;2022-09-16T00:56:38;96827.97;;;15.27;84.75
70921;BME280;58572;48.110;19.838;2022-09-16T00:59:09;96833.88;;;15.87;82.15
70921;BME280;58572;48.110;19.838;2022-09-16T01:01:39;96836.97;;;15.98;81.93
70921;BME280;58572;48.110;19.838;2022-09-16T01:04:11;96837.63;;;16.07;81.09
70921;BME280;58572;48.110;19.838;2022-09-16T01:06:39;96833.88;;;16.11;80.85
70921;BME280;58572;48.110;19.838;2022-09-16T01:09:06;96838.53;;;16.11;80.49
70921;BME280;58572;48.110;19.838;2022-09-16T01:11:33;96844.72;;;16.08;81.13
70921;BME280;58572;48.110;19.838;2022-09-16T01:14:03;96835.13;;;15.77;81.74
70921;BME280;58572;48.110;19.838;2022-09-16T01:16:53;96857.97;;;16.06;81.26
70921;BME280;58572;48.110;19.838;2022-09-16T01:19:36;96858.88;;;16.10;80.36
70921;BME280;58572;48.110;19.838;2022-09-16T01:22:16;96868.03;;;16.14;80.73
70921;BME280;58572;48.110;19.838;2022-09-16T01:24:49;96869.84;;;16.10;80.53
70921;BME280;58572;48.110;19.838;2022-09-16T01:33:21;96877.06;;;15.90;81.51
70921;BME280;58572;48.110;19.838;2022-09-16T01:36:30;96875.13;;;16.03;80.41
70921;BME280;58572;48.110;19.838;2022-09-16T01:39:09;96886.06;;;16.03;80.73
70921;BME280;58572;48.110;19.838;2022-09-16T01:41:46;96886.66;;;15.51;82.20
70921;BME280;58572;48.110;19.838;2022-09-16T01:44:22;96881.97;;;15.96;80.76
70921;BME280;58572;48.110;19.838;2022-09-16T01:46:59;96882.88;;;16.01;80.07
70921;BME280;58572;48.110;19.838;2022-09-16T01:49:35;96817.03;;;15.52;80.62
70921;BME280;58572;48.110;19.838;2022-09-16T01:52:13;96873.50;;;15.89;80.70
70921;BME280;58572;48.110;19.838;2022-09-16T01:54:46;96831.94;;;15.63;80.55
70921;BME280;58572;48.110;19.838;2022-09-16T01:57:18;96869.41;;;15.95;79.99
70921;BME280;58572;48.110;19.838;2022-09-16T01:59:51;96832.75;;;15.30;81.54
70921;BME280;58572;48.110;19.838;2022-09-16T02:02:23;96875.78;;;15.87;80.01
70921;BME280;58572;48.110;19.838;2022-09-16T02:04:58;96834.81;;;15.67;79.95
70921;BME280;58572;48.110;19.838;2022-09-16T02:07:30;96857.88;;;15.45;81.69
70921;BME280;58572;48.110;19.838;2022-09-16T02:10:06;96874.09;;;15.83;80.75
70921;BME280;58572;48.110;19.838;2022-09-16T02:12:39;96868.94;;;15.81;80.28
70921;BME280;58572;48.110;19.838;2022-09-16T02:15:10;96871.47;;;15.86;80.29
70921;BME280;58572;48.110;19.838;2022-09-16T02:17:46;96871.34;;;15.83;80.52
70921;BME280;58572;48.110;19.838;2022-09-16T02:20:18;96873.75;;;15.84;80.44
70921;BME280;58572;48.110;19.838;2022-09-16T02:22:48;96887.91;;;15.74;80.68
70921;BME280;58572;48.110;19.838;2022-09-16T02:25:18;96884.94;;;15.79;80.52
70921;BME280;58572;48.110;19.838;2022-09-16T02:27:47;96880.66;;;15.57;81.26
70921;BME280;58572;48.110;19.838;2022-09-16T02:30:17;96875.78;;;15.63;80.22
70921;BME280;58572;48.110;19.838;2022-09-16T02:32:47;96825.69;;;15.29;80.71
70921;BME280;58572;48.110;19.838;2022-09-16T02:35:19;96810.75;;;14.82;82.20
70921;BME280;58572;48.110;19.838;2022-09-16T02:37:50;96877.06;;;15.45;81.25
70921;BME280;58572;48.110;19.838;2022-09-16T02:40:22;96878.22;;;15.56;80.96
70921;BME280;58572;48.110;19.838;2022-09-16T02:42:55;96884.38;;;15.53;79.67
70921;BME280;58572;48.110;19.838;2022-09-16T02:45:24;96881.19;;;15.51;80.98
70921;BME280;58572;48.110;19.838;2022-09-16T02:48:02;96890.41;;;15.46;80.76
70921;BME280;58572;48.110;19.838;2022-09-16T02:50:34;96888.81;;;15.45;80.24
70921;BME280;58572;48.110;19.838;2022-09-16T02:53:11;96883.91;;;15.39;80.38
70921;BME280;58572;48.110;19.838;2022-09-16T02:55:49;96890.03;;;14.69;80.93
70921;BME280;58572;48.110;19.838;2022-09-16T02:58:19;96882.72;;;15.27;81.06
70921;BME280;58572;48.110;19.838;2022-09-16T03:00:50;96870.75;;;15.32;80.66
70921;BME280;58572;48.110;19.838;2022-09-16T03:03:18;96885.63;;;15.43;79.92
70921;BME280;58572;48.110;19.838;2022-09-16T03:06:12;96883.22;;;15.42;80.43
70921;BME280;58572;48.110;19.838;2022-09-16T03:08:41;96892.41;;;14.92;80.50
70921;BME280;58572;48.110;19.838;2022-09-16T03:14:06;96896.09;;;15.29;81.02
70921;BME280;58572;48.110;19.838;2022-09-16T03:16:38;96894.72;;;15.35;80.64
70921;BME280;58572;48.110;19.838;2022-09-16T03:19:15;96896.09;;;15.29;80.21
70921;BME280;58572;48.110;19.838;2022-09-16T03:21:54;96886.19;;;15.37;80.04
70921;BME280;58572;48.110;19.838;2022-09-16T03:24:27;96885.03;;;15.38;80.19
70921;BME280;58572;48.110;19.838;2022-09-16T03:27:01;96890.00;;;15.23;80.28
70921;BME280;58572;48.110;19.838;2022-09-16T03:29:33;96899.59;;;15.17;81.11
70921;BME280;58572;48.110;19.838;2022-09-16T03:32:09;96888.28;;;14.86;81.94
70921;BME280;58572;48.110;19.838;2022-09-16T03:34:43;96895.44;;;15.11;81.14
70921;BME280;58572;48.110;19.838;2022-09-16T03:37:16;96869.56;;;15.09;80.38
70921;BME280;58572;48.110;19.838;2022-09-16T03:39:48;96892.34;;;14.80;82.41
70921;BME280;58572;48.110;19.838;2022-09-16T03:42:17;96889.13;;;14.98;81.48
70921;BME280;58572;48.110;19.838;2022-09-16T03:44:45;96898.19;;;15.11;80.80
70921;BME280;58572;48.110;19.838;2022-09-16T03:47:13;96885.34;;;14.49;83.36
70921;BME280;58572;48.110;19.838;2022-09-16T03:49:40;96881.38;;;15.00;81.20
70921;BME280;58572;48.110;19.838;2022-09-16T03:52:08;96828.09;;;14.86;80.45
70921;BME280;58572;48.110;19.838;2022-09-16T03:54:37;96887.19;;;14.99;80.81
70921;BME280;58572;48.110;19.838;2022-09-16T03:57:05;96807.16;;;14.48;80.37
70921;BME280;58572;48.110;19.838;2022-09-16T03:59:32;96902.56;;;14.91;80.85
70921;BME280;58572;48.110;19.838;2022-09-16T04:01:59;96916.84;;;14.97;80.12
70921;BME280;58572;48.110;19.838;2022-09-16T04:04:26;96923.66;;;14.91;80.61
70921;BME280;58572;48.110;19.838;2022-09-16T04:06:53;96819.00;;;14.11;80.35
70921;BME280;58572;48.110;19.838;2022-09-16T04:09:21;96916.78;;;14.85;80.43
70921;BME280;58572;48.110;19.838;2022-09-16T04:11:49;96929.66;;;14.84;80.16
70921;BME280;58572;48.110;19.838;2022-09-16T04:14:16;96927.94;;;14.80;80.02
70921;BME280;58572;48.110;19.838;2022-09-16T04:16:44;96928.19;;;14.87;80.21
70921;BME280;58572;48.110;19.838;2022-09-16T04:19:12;96923.72;;;14.82;79.89
70921;BME280;58572;48.110;19.838;2022-09-16T04:21:40;96926.88;;;14.72;80.21
70921;BME280;58572;48.110;19.838;2022-09-16T04:24:09;96927.13;;;14.79;80.13
70921;BME280;58572;48.110;19.838;2022-09-16T04:26:37;96940.38;;;14.10;83.04
70921;BME280;58572;48.110;19.838;2022-09-16T04:29:06;96945.41;;;14.66;80.72
70921;BME280;58572;48.110;19.838;2022-09-16T04:31:33;96955.75;;;14.82;80.11
70921;BME280;58572;48.110;19.838;2022-09-16T04:34:01;96949.34;;;14.78;79.88
70921;BME280;58572;48.110;19.838;2022-09-16T04:36:29;96961.91;;;14.79;80.34
70921;BME280;58572;48.110;19.838;2022-09-16T04:38:56;96961.56;;;14.80;80.14
70921;BME280;58572;48.110;19.838;2022-09-16T04:41:24;96963.16;;;14.81;79.99
70921;BME280;58572;48.110;19.838;2022-09-16T04:43:53;96963.03;;;14.78;80.25
70921;BME280;58572;48.110;19.838;2022-09-16T04:46:24;96886.75;;;14.26;80.12
70921;BME280;58572;48.110;19.838;2022-09-16T04:48:52;96959.69;;;14.72;80.30
70921;BME280;58572;48.110;19.838;2022-09-16T04:51:20;96964.56;;;14.66;80.20
70921;BME280;58572;48.110;19.838;2022-09-16T04:53:48;96966.44;;;14.75;80.10
70921;BME280;58572;48.110;19.838;2022-09-16T04:56:17;96971.44;;;14.73;79.82
70921;BME280;58572;48.110;19.838;2022-09-16T04:58:46;96969.84;;;14.72;79.90
70921;BME280;58572;48.110;19.838;2022-09-16T05:01:15;96969.16;;;14.45;81.11
70921;BME280;58572;48.110;19.838;2022-09-16T05:03:46;96971.59;;;14.38;80.99
70921;BME280;58572;48.110;19.838;2022-09-16T05:06:17;96967.81;;;14.60;80.65
70921;BME280;58572;48.110;19.838;2022-09-16T05:08:44;96975.84;;;14.65;79.81
70921;BME280;58572;48.110;19.838;2022-09-16T05:11:13;96983.03;;;14.69;80.01
70921;BME280;58572;48.110;19.838;2022-09-16T05:13:41;96974.09;;;14.60;80.41
70921;BME280;58572;48.110;19.838;2022-09-16T05:16:10;96910.41;;;14.22;80.27
70921;BME280;58572;48.110;19.838;2022-09-16T05:18:39;96982.78;;;14.62;80.18
70921;BME280;58572;48.110;19.838;2022-09-16T05:21:10;96989.84;;;14.63;80.19
70921;BME280;58572;48.110;19.838;2022-09-16T05:23:38;96998.88;;;14.55;81.18
70921;BME280;58572;48.110;19.838;2022-09-16T05:26:07;96997.00;;;14.47;80.93
70921;BME280;58572;48.110;19.838;2022-09-16T05:28:34;96995.00;;;14.56;80.08
70921;BME280;58572;48.110;19.838;2022-09-16T05:31:09;96966.16;;;14.00;82.00
70921;BME280;58572;48.110;19.838;2022-09-16T05:33:37;96977.63;;;14.23;82.14
70921;BME280;58572;48.110;19.838;2022-09-16T05:36:09;96972.72;;;14.46;80.58
70921;BME280;58572;48.110;19.838;2022-09-16T05:38:37;96976.06;;;14.51;80.61
70921;BME280;58572;48.110;19.838;2022-09-16T05:41:05;96870.28;;;13.84;80.41
70921;BME280;58572;48.110;19.838;2022-09-16T05:43:33;96964.44;;;14.54;80.24
70921;BME280;58572;48.110;19.838;2022-09-16T05:46:01;96961.25;;;14.52;79.98
70921;BME280;58572;48.110;19.838;2022-09-16T05:48:29;96850.38;;;13.75;80.09
70921;BME280;58572;48.110;19.838;2022-09-16T05:50:59;96948.13;;;14.37;80.31
70921;BME280;58572;48.110;19.838;2022-09-16T05:53:29;96969.78;;;14.51;80.04
70921;BME280;58572;48.110;19.838;2022-09-16T05:55:58;96971.38;;;14.52;80.08
70921;BME280;58572;48.110;19.838;2022-09-16T05:58:28;96970.31;;;14.44;80.05
70921;BME280;58572;48.110;19.838;2022-09-16T06:00:59;96864.66;;;13.81;79.80
70921;BME280;58572;48.110;19.838;2022-09-16T06:03:27;96970.88;;;14.58;79.77
70921;BME280;58572;48.110;19.838;2022-09-16T06:05:59;96911.25;;;14.14;80.06
70921;BME280;58572;48.110;19.838;2022-09-16T06:08:29;96969.28;;;14.57;79.84
70921;BME280;58572;48.110;19.838;2022-09-16T06:10:59;96962.19;;;14.56;79.79
70921;BME280;58572;48.110;19.838;2022-09-16T06:13:27;96964.44;;;14.54;79.75
70921;BME280;58572;48.110;19.838;2022-09-16T06:15:54;96964.44;;;14.54;79.87
70921;BME280;58572;48.110;19.838;2022-09-16T06:18:22;96961.72;;;14.54;79.81
70921;BME280;58572;48.110;19.838;2022-09-16T06:20:49;96957.38;;;14.53;79.68
70921;BME280;58572;48.110;19.838;2022-09-16T06:23:16;96970.09;;;14.58;79.81
70921;BME280;58572;48.110;19.838;2022-09-16T06:25:46;96966.06;;;14.55;79.77
70921;BME280;58572;48.110;19.838;2022-09-16T06:28:13;96960.59;;;14.55;79.45
70921;BME280;58572;48.110;19.838;2022-09-16T06:30:40;96960.59;;;14.55;79.71
70921;BME280;58572;48.110;19.838;2022-09-16T06:33:07;96952.06;;;14.57;79.39
70921;BME280;58572;48.110;19.838;2022-09-16T06:35:35;96663.44;;;12.75;79.04
70921;BME280;58572;48.110;19.838;2022-09-16T06:38:02;96954.94;;;14.60;79.33
70921;BME280;58572;48.110;19.838;2022-09-16T06:40:29;96917.47;;;14.23;79.04
70921;BME280;58572;48.110;19.838;2022-09-16T06:42:58;96978.91;;;14.63;79.05
70921;BME280;58572;48.110;19.838;2022-09-16T06:45:25;96980.63;;;14.68;78.98
70921;BME280;58572;48.110;19.838;2022-09-16T06:47:57;96982.56;;;14.67;78.97
70921;BME280;58572;48.110;19.838;2022-09-16T06:50:25;96989.31;;;14.70;78.73
70921;BME280;58572;48.110;19.838;2022-09-16T06:52:52;96974.84;;;14.69;78.64
70921;BME280;58572;48.110;19.838;2022-09-16T06:55:19;96979.19;;;14.71;78.53
70921;BME280;58572;48.110;19.838;2022-09-16T06:57:46;96879.50;;;14.00;78.58
70921;BME280;58572;48.110;19.838;2022-09-16T07:00:15;96974.56;;;14.62;78.87
70921;BME280;58572;48.110;19.838;2022-09-16T07:02:42;96973.72;;;14.71;78.64
70921;BME280;58572;48.110;19.838;2022-09-16T07:05:09;96975.78;;;14.74;78.45
70921;BME280;58572;48.110;19.838;2022-09-16T07:07:36;96973.03;;;14.74;78.29
70921;BME280;58572;48.110;19.838;2022-09-16T07:10:04;96973.72;;;14.71;78.77
70921;BME280;58572;48.110;19.838;2022-09-16T07:12:31;96982.97;;;14.49;79.60
70921;BME280;58572;48.110;19.838;2022-09-16T07:14:58;96994.94;;;14.74;78.53
70921;BME280;58572;48.110;19.838;2022-09-16T07:17:26;96997.81;;;14.77;78.45
70921;BME280;58572;48.110;19.838;2022-09-16T07:19:54;96995.44;;;14.67;78.65
70921;BME280;58572;48.110;19.838;2022-09-16T07:22:21;97000.41;;;14.74;78.45
70921;BME280;58572;48.110;19.838;2022-09-16T07:24:48;96999.78;;;14.68;77.29
70921;BME280;58572;48.110;19.838;2022-09-16T07:27:16;96991.31;;;14.61;78.17
70921;BME280;58572;48.110;19.838;2022-09-16T07:29:43;96986.91;;;14.68;78.07
70921;BME280;58572;48.110;19.838;2022-09-16T07:32:10;96997.59;;;14.61;77.40
70921;BME280;58572;48.110;19.838;2022-09-16T07:34:38;96998.66;;;14.69;77.53
70921;BME280;58572;48.110;19.838;2022-09-16T07:37:05;96999.66;;;14.64;77.63
70921;BME280;58572;48.110;19.838;2022-09-16T07:39:32;96990.41;;;14.78;77.51
70921;BME280;58572;48.110;19.838;2022-09-16T07:41:59;96985.84;;;14.82;77.43
70921;BME280;58572;48.110;19.838;2022-09-16T07:44:28;96976.97;;;14.85;77.29
70921;BME280;58572;48.110;19.838;2022-09-16T07:46:55;96984.66;;;14.91;76.97
70921;BME280;58572;48.110;19.838;2022-09-16T07:49:22;96994.47;;;14.92;76.95
70921;BME280;58572;48.110;19.838;2022-09-16T07:51:51;96998.34;;;14.91;76.83
70921;BME280;58572;48.110;19.838;2022-09-16T07:54:18;96940.03;;;14.49;77.17
70921;BME280;58572;48.110;19.838;2022-09-16T07:56:46;97003.97;;;14.95;76.73
70921;BME280;58572;48.110;19.838;2022-09-16T07:59:15;97005.88;;;14.94;77.19
70921;BME280;58572;48.110;19.838;2022-09-16T08:01:43;97000.56;;;14.98;77.07
70921;BME280;58572;48.110;19.838;2022-09-16T08:04:10;97002.53;;;14.68;78.52
70921;BME280;58572;48.110;19.838;2022-09-16T08:06:39;96913.22;;;14.34;77.03
70921;BME280;58572;48.110;19.838;2022-09-16T08:09:08;96892.03;;;14.31;77.00
70921;BME280;58572;48.110;19.838;2022-09-16T08:11:35;96991.34;;;14.82;78.04
70921;BME280;58572;48.110;19.838;2022-09-16T08:14:02;96992.81;;;15.00;76.58
70921;BME280;58572;48.110;19.838;2022-09-16T08:16:29;96991.06;;;14.95;76.88
70921;BME280;58572;48.110;19.838;2022-09-16T08:18:57;96992.69;;;14.96;76.93
70921;BME280;58572;48.110;19.838;2022-09-16T08:21:26;97002.13;;;14.78;77.20
70921;BME280;58572;48.110;19.838;2022-09-16T08:23:54;97002.81;;;14.96;76.81
70921;BME280;58572;48.110;19.838;2022-09-16T08:26:23;96978.84;;;14.72;77.32
70921;BME280;58572;48.110;19.838;2022-09-16T08:28:51;97007.34;;;14.92;76.96
70921;BME280;58572;48.110;19.838;2022-09-16T08:31:18;96951.75;;;14.58;76.53
70921;BME280;58572;48.110;19.838;2022-09-16T08:33:46;97021.38;;;15.11;76.43
70921;BME280;58572;48.110;19.838;2022-09-16T08:36:16;97029.59;;;15.11;76.44
70921;BME280;58572;48.110;19.838;2022-09-16T08:38:45;97021.38;;;15.11;76.02
70921;BME280;58572;48.110;19.838;2022-09-16T08:41:35;97019.16;;;14.84;76.21
70921;BME280;58572;48.110;19.838;2022-09-16T08:44:14;97033.06;;;15.20;75.63
70921;BME280;58572;48.110;19.838;2022-09-16T08:46:49;97028.06;;;15.22;75.35
70921;BME280;58572;48.110;19.838;2022-09-16T08:49:21;96943.34;;;14.84;75.46
70921;BME280;58572;48.110;19.838;2022-09-16T08:51:53;96920.66;;;14.63;75.17
70921;BME280;58572;48.110;19.838;2022-09-16T08:54:26;96920.59;;;14.72;74.16
70921;BME280;58572;48.110;19.838;2022-09-16T08:56:58;97024.31;;;15.48;74.96
70921;BME280;58572;48.110;19.838;2022-09-16T08:59:31;97025.22;;;15.52;74.52
70921;BME280;58572;48.110;19.838;2022-09-16T09:04:54;97028.78;;;15.73;73.38
70921;BME280;58572;48.110;19.838;2022-09-16T09:07:30;97026.56;;;16.00;72.60
70921;BME280;58572;48.110;19.838;2022-09-16T09:10:09;97033.63;;;15.88;72.36
70921;BME280;58572;48.110;19.838;2022-09-16T09:12:46;97034.56;;;15.92;71.44
70921;BME280;58572;48.110;19.838;2022-09-16T09:15:32;97034.44;;;15.89;71.72
70921;BME280;58572;48.110;19.838;2022-09-16T09:18:19;97026.56;;;15.87;70.23
70921;BME280;58572;48.110;19.838;2022-09-16T09:20:53;97015.16;;;15.98;69.95
70921;BME280;58572;48.110;19.838;2022-09-16T09:23:50;97018.50;;;16.27;66.77
70921;BME280;58572;48.110;19.838;2022-09-16T09:26:21;97024.19;;;15.98;69.68
70921;BME280;58572;48.110;19.838;2022-09-16T09:29:19;97020.47;;;16.64;69.00
70921;BME280;58572;48.110;19.838;2022-09-16T09:31:56;97034.19;;;16.51;68.20
70921;BME280;58572;48.110;19.838;2022-09-16T09:34:39;97030.16;;;16.24;68.06
70921;BME280;58572;48.110;19.838;2022-09-16T09:37:31;97020.91;;;16.29;67.88
70921;BME280;58572;48.110;19.838;2022-09-16T09:40:09;97015.44;;;16.53;67.87
70921;BME280;58572;48.110;19.838;2022-09-16T09:42:39;97016.16;;;16.75;68.40
70921;BME280;58572;48.110;19.838;2022-09-16T09:45:18;97029.09;;;16.74;66.37
70921;BME280;58572;48.110;19.838;2022-09-16T09:47:50;97016.81;;;16.96;66.32
70921;BME280;58572;48.110;19.838;2022-09-16T09:50:23;97017.88;;;16.79;65.71
70921;BME280;58572;48.110;19.838;2022-09-16T09:52:56;97007.91;;;16.99;66.99
70921;BME280;58572;48.110;19.838;2022-09-16T09:55:31;97010.91;;;17.74;63.92
70921;BME280;58572;48.110;19.838;2022-09-16T09:58:09;96935.06;;;17.17;64.61
70921;BME280;58572;48.110;19.838;2022-09-16T10:00:42;96996.44;;;17.77;63.96
70921;BME280;58572;48.110;19.838;2022-09-16T10:03:11;97006.59;;;18.05;63.29
70921;BME280;58572;48.110;19.838;2022-09-16T10:05:40;97007.75;;;18.35;61.87
70921;BME280;58572;48.110;19.838;2022-09-16T10:08:13;97003.22;;;17.96;62.49
70921;BME280;58572;48.110;19.838;2022-09-16T10:10:47;96909.50;;;17.01;62.13
70921;BME280;58572;48.110;19.838;2022-09-16T10:13:16;97003.47;;;17.91;62.47
70921;BME280;58572;48.110;19.838;2022-09-16T10:15:46;96996.59;;;17.56;59.30
70921;BME280;58572;48.110;19.838;2022-09-16T10:18:22;96955.34;;;17.41;60.81
70921;BME280;58572;48.110;19.838;2022-09-16T10:20:57;96990.63;;;17.67;63.33
70921;BME280;58572;48.110;19.838;2022-09-16T10:23:25;96998.34;;;17.49;62.24
70921;BME280;58572;48.110;19.838;2022-09-16T10:26:03;97003.41;;;17.47;63.65
70921;BME280;58572;48.110;19.838;2022-09-16T10:28:32;96978.84;;;16.98;62.67
70921;BME280;58572;48.110;19.838;2022-09-16T10:31:01;96933.81;;;16.75;59.06
70921;BME280;58572;48.110;19.838;2022-09-16T10:33:29;96998.41;;;17.93;58.37
70921;BME280;58572;48.110;19.838;2022-09-16T10:35:59;96994.72;;;18.32;56.54
70921;BME280;58572;48.110;19.838;2022-09-16T10:38:35;96984.38;;;18.92;55.35
70921;BME280;58572;48.110;19.838;2022-09-16T10:41:06;96973.94;;;18.50;53.80
70921;BME280;58572;48.110;19.838;2022-09-16T10:43:37;96977.41;;;18.47;56.57
70921;BME280;58572;48.110;19.838;2022-09-16T10:46:06;96968.56;;;18.89;55.92
70921;BME280;58572;48.110;19.838;2022-09-16T10:48:34;96964.97;;;19.43;55.58
70921;BME280;58572;48.110;19.838;2022-09-16T10:51:05;96976.75;;;18.86;55.45
70921;BME280;58572;48.110;19.838;2022-09-16T10:53:33;96965.38;;;18.87;55.73
70921;BME280;58572;48.110;19.838;2022-09-16T10:56:02;96872.53;;;18.52;53.89
70921;BME280;58572;48.110;19.838;2022-09-16T10:58:30;96976.72;;;19.40;51.75
70921;BME280;58572;48.110;19.838;2022-09-16T11:01:03;96971.13;;;20.17;48.50
70921;BME280;58572;48.110;19.838;2022-09-16T11:06:51;96969.34;;;19.25;51.06
70921;BME280;58572;48.110;19.838;2022-09-16T11:09:27;96962.66;;;19.06;50.67
70921;BME280;58572;48.110;19.838;2022-09-16T11:12:08;96966.72;;;19.12;49.49
70921;BME280;58572;48.110;19.838;2022-09-16T11:14:45;96958.16;;;19.18;52.54
70921;BME280;58572;48.110;19.838;2022-09-16T11:17:32;96959.97;;;19.29;50.70
70921;BME280;58572;48.110;19.838;2022-09-16T11:23:10;96965.25;;;18.99;42.13
70921;BME280;58572;48.110;19.838;2022-09-16T11:25:48;96952.72;;;19.21;45.73
70921;BME280;58572;48.110;19.838;2022-09-16T11:28:49;96950.84;;;19.06;42.16
70921;BME280;58572;48.110;19.838;2022-09-16T11:31:29;96953.41;;;19.53;44.78
70921;BME280;58572;48.110;19.838;2022-09-16T11:34:04;96910.59;;;19.01;48.22
70921;BME280;58572;48.110;19.838;2022-09-16T11:36:43;96946.09;;;18.87;48.93
70921;BME280;58572;48.110;19.838;2022-09-16T11:39:22;96946.13;;;18.71;50.09
70921;BME280;58572;48.110;19.838;2022-09-16T11:41:57;96947.28;;;18.55;49.89
70921;BME280;58572;48.110;19.838;2022-09-16T11:44:37;96940.81;;;18.63;49.89
70921;BME280;58572;48.110;19.838;2022-09-16T11:47:15;96940.81;;;18.63;51.49
70921;BME280;58572;48.110;19.838;2022-09-16T11:50:02;96908.66;;;18.51;49.91
70921;BME280;58572;48.110;19.838;2022-09-16T11:52:48;96951.63;;;18.71;49.21
70921;BME280;58572;48.110;19.838;2022-09-16T11:55:27;96949.84;;;18.79;52.24
70921;BME280;58572;48.110;19.838;2022-09-16T11:57:58;96947.97;;;18.83;51.21
70921;BME280;58572;48.110;19.838;2022-09-16T12:00:28;96942.19;;;18.88;49.74
70921;BME280;58572;48.110;19.838;2022-09-16T12:03:00;96941.41;;;18.72;51.87
70921;BME280;58572;48.110;19.838;2022-09-16T12:05:35;96939.31;;;18.49;51.28
70921;BME280;58572;48.110;19.838;2022-09-16T12:08:11;96914.88;;;18.48;51.27
70921;BME280;58572;48.110;19.838;2022-09-16T12:10:49;96895.59;;;18.13;51.39
70921;BME280;58572;48.110;19.838;2022-09-16T12:13:23;96944.44;;;18.67;50.01
70921;BME280;58572;48.110;19.838;2022-09-16T12:15:53;96935.03;;;18.68;52.90
70921;BME280;58572;48.110;19.838;2022-09-16T12:18:26;96941.44;;;18.40;53.12
70921;BME280;58572;48.110;19.838;2022-09-16T12:21:04;96938.25;;;18.38;51.46
70921;BME280;58572;48.110;19.838;2022-09-16T12:23:39;96854.19;;;17.74;53.47
70921;BME280;58572;48.110;19.838;2022-09-16T12:26:10;96942.34;;;18.29;52.31
70921;BME280;58572;48.110;19.838;2022-09-16T12:28:43;96946.16;;;18.24;52.86
70921;BME280;58572;48.110;19.838;2022-09-16T12:31:17;96935.47;;;18.70;52.94
70921;BME280;58572;48.110;19.838;2022-09-16T12:33:49;96905.81;;;18.63;49.24
70921;BME280;58572;48.110;19.838;2022-09-16T12:36:22;96916.47;;;18.65;53.29
70921;BME280;58572;48.110;19.838;2022-09-16T12:38:52;96924.00;;;18.68;53.37
70921;BME280;58572;48.110;19.838;2022-09-16T12:41:54;96931.56;;;18.55;52.12
70921;BME280;58572;48.110;19.838;2022-09-16T12:44:44;96931.03;;;18.65;51.69
70921;BME280;58572;48.110;19.838;2022-09-16T12:47:37;96897.00;;;18.23;50.14
70921;BME280;58572;48.110;19.838;2022-09-16T12:50:27;96905.88;;;18.32;51.31
70921;BME280;58572;48.110;19.838;2022-09-16T12:53:29;96902.47;;;18.38;52.74
70921;BME280;58572;48.110;19.838;2022-09-16T12:56:07;96893.50;;;18.41;52.65
70921;BME280;58572;48.110;19.838;2022-09-16T12:58:58;96901.31;;;18.39;52.14
70921;BME280;58572;48.110;19.838;2022-09-16T13:01:31;96903.59;;;18.69;52.32
70921;BME280;58572;48.110;19.838;2022-09-16T13:04:07;96903.94;;;19.22;51.16
70921;BME280;58572;48.110;19.838;2022-09-16T13:06:38;96902.41;;;20.08;50.20
70921;BME280;58572;48.110;19.838;2022-09-16T13:09:18;96909.97;;;19.69;50.72
70921;BME280;58572;48.110;19.838;2022-09-16T13:11:54;96912.44;;;20.43;48.98
70921;BME280;58572;48.110;19.838;2022-09-16T13:14:23;96779.97;;;19.02;49.20
70921;BME280;58572;48.110;19.838;2022-09-16T13:16:53;96911.38;;;19.40;50.83
70921;BME280;58572;48.110;19.838;2022-09-16T13:19:38;96915.31;;;19.01;51.25
70921;BME280;58572;48.110;19.838;2022-09-16T13:22:26;96910.69;;;18.70;50.16
70921;BME280;58572;48.110;19.838;2022-09-16T13:24:59;96909.72;;;18.62;51.65
70921;BME280;58572;48.110;19.838;2022-09-16T13:27:34;96907.56;;;18.71;52.81
70921;BME280;58572;48.110;19.838;2022-09-16T13:30:12;96906.69;;;18.67;51.82
70921;BME280;58572;48.110;19.838;2022-09-16T13:32:43;96908.75;;;18.55;53.86
70921;BME280;58572;48.110;19.838;2022-09-16T13:35:34;96905.78;;;18.28;53.46